createdAt,value
2023-05-26T00:01:21.528Z,11.60
2023-05-26T00:03:50.358Z,11.50
2023-05-26T00:06:17.853Z,12.00
2023-05-26T00:08:45.507Z,11.50
2023-05-26T00:11:13.217Z,11.70
2023-05-26T00:13:40.612Z,11.50
2023-05-26T00:16:07.965Z,11.60
2023-05-26T00:18:35.545Z,11.60
2023-05-26T00:21:02.989Z,11.70
2023-05-26T00:23:30.360Z,12.30
2023-05-26T00:25:57.951Z,11.50
2023-05-26T00:28:25.247Z,11.60
2023-05-26T00:30:52.667Z,11.40
2023-05-26T00:33:20.376Z,11.50
2023-05-26T00:35:47.907Z,11.50
2023-05-26T00:38:15.539Z,11.40
2023-05-26T00:40:43.205Z,11.40
2023-05-26T00:43:10.588Z,11.40
2023-05-26T00:45:38.077Z,11.40
2023-05-26T00:48:06.793Z,11.40
2023-05-26T00:50:35.586Z,11.30
2023-05-26T00:53:04.933Z,11.30
2023-05-26T00:55:33.750Z,11.40
2023-05-26T00:58:01.369Z,11.40
2023-05-26T01:00:29.303Z,11.50
2023-05-26T01:02:58.387Z,11.60
2023-05-26T01:05:26.471Z,11.20
2023-05-26T01:07:55.037Z,11.30
2023-05-26T01:10:22.803Z,11.70
2023-05-26T01:13:02.999Z,11.60
2023-05-26T01:15:35.277Z,11.90
2023-05-26T01:18:10.428Z,11.50
2023-05-26T01:20:47.406Z,11.50
2023-05-26T01:23:33.666Z,11.50
2023-05-26T01:26:15.380Z,11.60
2023-05-26T01:28:45.000Z,11.50
2023-05-26T01:31:14.008Z,11.80
2023-05-26T01:33:42.907Z,11.60
2023-05-26T01:36:11.495Z,11.50
2023-05-26T01:38:40.365Z,11.60
2023-05-26T01:41:36.096Z,11.70
2023-05-26T01:44:09.883Z,11.40
2023-05-26T01:46:46.149Z,11.50
2023-05-26T01:49:17.806Z,11.80
2023-05-26T01:51:57.457Z,11.60
2023-05-26T01:54:28.327Z,11.50
2023-05-26T01:56:57.806Z,11.50
2023-05-26T01:59:26.294Z,12.80
2023-05-26T02:01:53.773Z,11.90
2023-05-26T02:04:21.361Z,11.60
2023-05-26T02:06:48.726Z,11.60
2023-05-26T02:09:16.757Z,11.70
2023-05-26T02:11:44.069Z,11.60
2023-05-26T02:14:11.518Z,12.10
2023-05-26T02:16:39.021Z,12.10
2023-05-26T02:19:08.744Z,12.10
2023-05-26T02:21:36.928Z,11.70
2023-05-26T02:24:04.445Z,11.60
2023-05-26T02:26:32.293Z,11.70
2023-05-26T02:28:59.678Z,11.70
2023-05-26T02:31:27.164Z,11.60
2023-05-26T02:33:55.580Z,11.70
2023-05-26T02:36:23.064Z,11.70
2023-05-26T02:38:50.803Z,11.60
2023-05-26T02:41:18.457Z,11.60
2023-05-26T02:43:46.963Z,12.80
2023-05-26T02:46:15.055Z,11.50
2023-05-26T02:48:43.034Z,11.50
2023-05-26T02:51:10.364Z,11.40
2023-05-26T02:53:39.771Z,11.50
2023-05-26T02:56:08.034Z,11.30
2023-05-26T02:58:35.552Z,11.40
2023-05-26T03:01:04.023Z,11.40
2023-05-26T03:03:31.609Z,11.40
2023-05-26T03:05:59.871Z,11.30
2023-05-26T03:08:28.335Z,11.20
2023-05-26T03:11:09.314Z,11.30
2023-05-26T03:13:40.070Z,12.10
2023-05-26T03:16:08.014Z,11.30
2023-05-26T03:18:35.998Z,11.30
2023-05-26T03:21:06.500Z,12.50
2023-05-26T03:23:36.366Z,12.00
2023-05-26T03:26:05.223Z,11.70
2023-05-26T03:28:34.770Z,11.30
2023-05-26T03:31:02.618Z,11.30
2023-05-26T03:33:32.397Z,11.30
2023-05-26T03:36:01.358Z,11.10
2023-05-26T03:38:29.600Z,11.30
2023-05-26T03:41:00.503Z,11.30
2023-05-26T03:43:28.122Z,11.20
2023-05-26T03:45:55.804Z,11.20
2023-05-26T03:48:23.227Z,11.30
2023-05-26T03:50:50.996Z,11.30
2023-05-26T03:53:18.990Z,11.30
2023-05-26T03:55:46.576Z,11.20
2023-05-26T03:58:14.173Z,11.10
2023-05-26T04:00:41.494Z,11.10
2023-05-26T04:03:08.928Z,11.30
2023-05-26T04:05:36.832Z,11.20
2023-05-26T04:08:04.189Z,11.50
2023-05-26T04:10:31.548Z,11.20
2023-05-26T04:12:59.434Z,11.20
2023-05-26T04:15:26.817Z,12.00
2023-05-26T04:17:54.290Z,11.10
2023-05-26T04:20:21.809Z,10.90
2023-05-26T04:22:49.407Z,11.20
2023-05-26T04:25:17.911Z,11.10
2023-05-26T04:27:50.445Z,11.40
2023-05-26T04:30:31.489Z,12.30
2023-05-26T04:33:21.880Z,12.60
2023-05-26T04:36:09.805Z,11.60
2023-05-26T04:38:39.200Z,11.20
2023-05-26T04:41:08.367Z,11.40
2023-05-26T04:43:36.183Z,11.40
2023-05-26T04:46:04.442Z,11.40
2023-05-26T04:48:33.546Z,11.50
2023-05-26T04:51:00.974Z,12.10
2023-05-26T04:53:28.484Z,11.50
2023-05-26T04:55:55.902Z,11.50
2023-05-26T04:58:23.816Z,11.50
2023-05-26T05:00:51.760Z,11.50
2023-05-26T05:03:37.819Z,11.30
2023-05-26T05:06:09.141Z,11.60
2023-05-26T05:08:38.711Z,11.60
2023-05-26T05:11:06.531Z,12.70
2023-05-26T05:13:34.650Z,11.50
2023-05-26T05:16:04.656Z,11.70
2023-05-26T05:18:32.303Z,12.60
2023-05-26T05:20:59.990Z,11.90
2023-05-26T05:23:28.109Z,11.80
2023-05-26T05:25:57.032Z,11.90
2023-05-26T05:28:24.915Z,11.90
2023-05-26T05:31:08.878Z,11.90
2023-05-26T05:33:39.603Z,12.20
2023-05-26T05:36:07.415Z,12.20
2023-05-26T05:38:34.796Z,12.00
2023-05-26T05:41:02.599Z,12.20
2023-05-26T05:43:30.164Z,12.10
2023-05-26T05:45:58.206Z,12.30
2023-05-26T05:48:44.251Z,12.20
2023-05-26T05:51:18.317Z,12.20
2023-05-26T05:53:46.408Z,12.10
2023-05-26T05:56:14.535Z,12.20
2023-05-26T05:58:41.922Z,12.30
2023-05-26T06:01:09.382Z,12.40
2023-05-26T06:03:37.523Z,12.40
2023-05-26T06:06:06.519Z,13.00
2023-05-26T06:08:33.889Z,12.60
2023-05-26T06:11:01.688Z,12.60
2023-05-26T06:13:33.461Z,14.10
2023-05-26T06:16:00.879Z,12.60
2023-05-26T06:18:28.335Z,13.50
2023-05-26T06:20:56.123Z,12.90
2023-05-26T06:23:24.356Z,13.00
2023-05-26T06:25:53.817Z,13.90
2023-05-26T06:28:23.717Z,12.90
2023-05-26T06:30:51.852Z,13.50
2023-05-26T06:33:32.328Z,13.30
2023-05-26T06:36:01.167Z,13.10
2023-05-26T06:38:28.968Z,14.30
2023-05-26T06:41:01.529Z,12.90
2023-05-26T06:43:29.273Z,14.40
2023-05-26T06:45:57.130Z,13.60
2023-05-26T06:48:25.247Z,13.50
2023-05-26T06:51:15.508Z,13.60
2023-05-26T06:53:43.188Z,13.50
2023-05-26T06:56:13.242Z,14.10
2023-05-26T06:58:40.746Z,13.80
2023-05-26T07:01:09.476Z,13.60
2023-05-26T07:03:40.396Z,13.70
2023-05-26T07:06:08.631Z,13.50
2023-05-26T07:08:39.198Z,13.80
2023-05-26T07:11:20.304Z,13.60
2023-05-26T07:13:54.022Z,13.60
2023-05-26T07:16:22.799Z,13.70
2023-05-26T07:18:50.386Z,14.50
2023-05-26T07:21:20.236Z,14.00
2023-05-26T07:23:49.843Z,14.10
2023-05-26T07:26:17.357Z,13.90
2023-05-26T07:28:45.911Z,14.10
2023-05-26T07:31:13.545Z,13.80
2023-05-26T07:36:12.307Z,13.80
2023-05-26T07:38:40.003Z,13.90
2023-05-26T07:41:09.791Z,14.10
2023-05-26T07:43:37.162Z,13.40
2023-05-26T07:46:04.825Z,13.70
2023-05-26T07:48:32.253Z,13.70
2023-05-26T07:51:00.058Z,14.00
2023-05-26T07:53:27.616Z,13.80
2023-05-26T07:55:55.125Z,15.00
2023-05-26T07:58:22.970Z,13.80
2023-05-26T08:00:50.402Z,14.10
2023-05-26T08:03:18.274Z,14.10
2023-05-26T08:08:14.201Z,14.20
2023-05-26T08:10:41.656Z,14.30
2023-05-26T08:13:10.321Z,14.50
2023-05-26T08:15:38.245Z,14.50
2023-05-26T08:18:05.959Z,14.30
2023-05-26T08:20:36.299Z,14.30
2023-05-26T08:23:04.216Z,14.40
2023-05-26T08:25:32.048Z,14.20
2023-05-26T08:27:59.392Z,15.50
2023-05-26T08:30:27.602Z,15.10
2023-05-26T08:32:55.242Z,14.10
2023-05-26T08:35:22.779Z,14.80
2023-05-26T08:37:51.480Z,15.00
2023-05-26T08:40:19.025Z,14.80
2023-05-26T08:42:50.592Z,14.80
2023-05-26T08:45:21.547Z,15.00
2023-05-26T08:47:51.069Z,15.20
2023-05-26T08:50:20.710Z,15.20
2023-05-26T08:55:37.295Z,15.60
2023-05-26T08:58:05.582Z,15.30
2023-05-26T09:00:34.391Z,15.40
2023-05-26T09:03:04.297Z,15.30
2023-05-26T09:05:31.934Z,16.60
2023-05-26T09:07:59.634Z,15.50
2023-05-26T09:10:30.444Z,15.50
2023-05-26T09:13:07.642Z,15.70
2023-05-26T09:15:37.602Z,15.40
2023-05-26T09:18:07.795Z,15.60
2023-05-26T09:20:41.997Z,15.70
2023-05-26T09:23:10.557Z,15.70
2023-05-26T09:25:39.700Z,15.70
2023-05-26T09:28:09.554Z,15.80
2023-05-26T09:30:38.098Z,15.80
2023-05-26T09:33:16.232Z,16.20
2023-05-26T09:35:45.832Z,15.90
2023-05-26T09:38:18.472Z,16.00
2023-05-26T09:40:48.144Z,16.40
2023-05-26T09:43:19.715Z,17.00
2023-05-26T09:45:47.174Z,17.10
2023-05-26T09:48:16.069Z,16.30
2023-05-26T09:50:43.805Z,16.40
2023-05-26T09:53:11.989Z,16.40
2023-05-26T09:55:41.718Z,16.60
2023-05-26T09:58:11.499Z,16.70
2023-05-26T10:00:43.772Z,16.60
2023-05-26T10:03:12.341Z,16.80
2023-05-26T10:05:46.564Z,16.80
2023-05-26T10:08:20.630Z,16.90
2023-05-26T10:10:51.697Z,16.90
2023-05-26T10:13:20.689Z,17.10
2023-05-26T10:15:49.292Z,17.20
2023-05-26T10:18:16.862Z,17.20
2023-05-26T10:20:48.864Z,17.20
2023-05-26T10:23:28.168Z,17.20
2023-05-26T10:26:10.076Z,17.30
2023-05-26T10:28:50.926Z,17.50
2023-05-26T10:31:32.517Z,17.70
2023-05-26T10:36:29.685Z,17.60
2023-05-26T10:38:57.199Z,17.70
2023-05-26T10:41:30.531Z,17.80
2023-05-26T10:43:59.219Z,18.00
2023-05-26T10:46:38.674Z,18.00
2023-05-26T10:49:20.764Z,18.10
2023-05-26T10:51:54.315Z,18.10
2023-05-26T10:54:25.692Z,18.30
2023-05-26T10:56:54.583Z,18.30
2023-05-26T10:59:33.412Z,18.40
2023-05-26T11:02:05.909Z,18.70
2023-05-26T11:04:44.472Z,18.40
2023-05-26T11:07:21.980Z,18.80
2023-05-26T11:10:03.071Z,18.70
2023-05-26T11:12:35.080Z,18.70
2023-05-26T11:15:34.115Z,18.90
2023-05-26T11:18:09.482Z,18.80
2023-05-26T11:23:05.253Z,19.10
2023-05-26T11:25:48.072Z,19.20
2023-05-26T11:28:19.837Z,19.20
2023-05-26T11:30:47.136Z,19.30
2023-05-26T11:33:15.893Z,19.50
2023-05-26T11:35:43.720Z,19.40
2023-05-26T11:38:11.265Z,19.80
2023-05-26T11:40:38.899Z,19.90
2023-05-26T11:43:06.344Z,20.00
2023-05-26T11:45:35.174Z,20.30
2023-05-26T11:48:02.557Z,20.40
2023-05-26T11:50:29.984Z,20.60
2023-05-26T11:52:57.349Z,20.80
2023-05-26T11:55:24.780Z,20.70
2023-05-26T11:57:52.551Z,20.80
2023-05-26T12:00:20.662Z,21.10
2023-05-26T12:02:48.742Z,21.30
2023-05-26T12:05:20.980Z,21.50
2023-05-26T12:08:05.403Z,21.60
2023-05-26T12:13:01.575Z,21.70
2023-05-26T12:15:29.028Z,21.70
2023-05-26T12:18:01.649Z,21.60
2023-05-26T12:23:03.944Z,22.00
2023-05-26T12:25:32.749Z,22.20
2023-05-26T12:28:00.692Z,22.50
2023-05-26T12:30:44.210Z,22.50
2023-05-26T12:33:16.827Z,22.40
2023-05-26T12:35:44.162Z,22.50
2023-05-26T12:38:15.031Z,22.60
2023-05-26T12:40:43.074Z,22.80
2023-05-26T12:43:10.735Z,22.70
2023-05-26T12:45:38.094Z,22.90
2023-05-26T12:48:05.656Z,22.90
2023-05-26T12:50:33.026Z,23.40
2023-05-26T12:53:00.515Z,23.20
2023-05-26T12:55:27.952Z,23.10
2023-05-26T12:57:55.271Z,23.20
2023-05-26T13:00:22.827Z,23.30
2023-05-26T13:05:19.375Z,23.50
2023-05-26T13:07:46.719Z,23.60
2023-05-26T13:10:14.029Z,23.80
2023-05-26T13:12:42.617Z,23.90
2023-05-26T13:15:10.552Z,24.20
2023-05-26T13:17:38.031Z,24.10
2023-05-26T13:20:06.890Z,23.90
2023-05-26T13:22:37.147Z,24.30
2023-05-26T13:25:04.857Z,24.30
2023-05-26T13:27:32.172Z,24.30
2023-05-26T13:29:59.510Z,24.90
2023-05-26T13:32:27.008Z,24.40
2023-05-26T13:34:54.319Z,24.40
2023-05-26T13:37:22.204Z,24.50
2023-05-26T13:39:49.727Z,24.30
2023-05-26T13:42:17.109Z,24.60
2023-05-26T13:44:44.791Z,24.30
2023-05-26T13:47:12.147Z,24.70
2023-05-26T13:49:39.497Z,24.70
2023-05-26T13:52:07.474Z,24.90
2023-05-26T13:54:34.841Z,25.10
2023-05-26T13:57:02.458Z,25.10
2023-05-26T13:59:31.255Z,25.40
2023-05-26T14:01:58.714Z,25.30
2023-05-26T14:04:27.571Z,25.40
2023-05-26T14:07:04.243Z,25.30
2023-05-26T14:09:42.013Z,25.30
2023-05-26T14:12:09.685Z,25.80
2023-05-26T14:14:37.702Z,26.30
2023-05-26T14:17:05.247Z,26.10
2023-05-26T14:19:32.811Z,26.20
2023-05-26T14:22:01.709Z,26.40
2023-05-26T14:24:33.095Z,26.00
2023-05-26T14:27:00.560Z,26.60
2023-05-26T14:29:28.397Z,26.80
2023-05-26T14:31:56.024Z,26.60
2023-05-26T14:34:23.391Z,26.40
2023-05-26T14:36:51.166Z,26.20
2023-05-26T14:39:18.702Z,26.20
2023-05-26T14:41:46.036Z,26.40
2023-05-26T14:44:13.555Z,26.50
2023-05-26T14:46:41.252Z,26.50
2023-05-26T14:49:11.767Z,26.20
2023-05-26T14:51:39.461Z,25.90
2023-05-26T14:54:07.543Z,26.00
2023-05-26T14:56:35.579Z,26.20
2023-05-26T14:59:03.545Z,26.40
2023-05-26T15:01:31.017Z,26.20
2023-05-26T15:04:13.566Z,26.10
2023-05-26T15:06:43.148Z,26.60
2023-05-26T15:09:10.619Z,26.90
2023-05-26T15:11:42.337Z,27.00
2023-05-26T15:14:10.993Z,26.70
2023-05-26T15:16:39.829Z,26.70
2023-05-26T15:19:07.329Z,26.90
2023-05-26T15:21:38.680Z,27.40
2023-05-26T15:24:08.086Z,27.20
2023-05-26T15:26:36.153Z,26.90
2023-05-26T15:29:03.780Z,27.20
2023-05-26T15:31:31.423Z,27.10
2023-05-26T15:33:59.153Z,27.10
2023-05-26T15:36:26.926Z,27.00
2023-05-26T15:38:54.784Z,26.90
2023-05-26T15:41:26.217Z,27.00
2023-05-26T15:43:55.372Z,27.00
2023-05-26T15:46:22.802Z,26.60
2023-05-26T15:48:50.289Z,27.30
2023-05-26T15:51:17.888Z,26.80
2023-05-26T15:53:45.477Z,27.10
2023-05-26T15:56:12.949Z,26.90
2023-05-26T15:58:40.484Z,27.30
2023-05-26T16:01:08.008Z,26.10
2023-05-26T16:03:35.830Z,27.20
2023-05-26T16:06:04.532Z,27.40
2023-05-26T16:08:31.859Z,27.40
2023-05-26T16:10:59.545Z,27.30
2023-05-26T16:13:27.153Z,27.50
2023-05-26T16:15:54.937Z,27.00
2023-05-26T16:18:22.349Z,27.20
2023-05-26T16:20:50.027Z,27.30
2023-05-26T16:23:17.664Z,27.70
2023-05-26T16:25:46.256Z,28.00
2023-05-26T16:28:13.667Z,27.70
2023-05-26T16:30:41.414Z,27.80
2023-05-26T16:33:08.747Z,27.40
2023-05-26T16:35:50.322Z,27.40
2023-05-26T16:38:18.985Z,27.50
2023-05-26T16:40:46.637Z,27.00
2023-05-26T16:43:17.049Z,26.90
2023-05-26T16:45:47.391Z,27.40
2023-05-26T16:48:14.798Z,27.40
2023-05-26T16:50:42.174Z,26.90
2023-05-26T16:53:11.100Z,26.90
2023-05-26T16:55:38.646Z,27.10
2023-05-26T16:58:07.309Z,27.40
2023-05-26T17:00:34.647Z,27.10
2023-05-26T17:03:02.330Z,27.40
2023-05-26T17:05:29.757Z,27.30
2023-05-26T17:07:59.063Z,27.50
2023-05-26T17:10:28.712Z,27.30
2023-05-26T17:12:57.758Z,26.90
2023-05-26T17:15:25.360Z,27.10
2023-05-26T17:17:53.009Z,27.30
2023-05-26T17:20:20.562Z,26.70
2023-05-26T17:22:48.232Z,27.10
2023-05-26T17:25:15.995Z,26.90
2023-05-26T17:27:43.382Z,27.10
2023-05-26T17:30:11.070Z,27.00
2023-05-26T17:32:38.455Z,27.40
2023-05-26T17:35:06.649Z,27.20
2023-05-26T17:37:34.144Z,27.30
2023-05-26T17:40:01.601Z,26.40
2023-05-26T17:42:28.937Z,26.30
2023-05-26T17:44:56.361Z,26.10
2023-05-26T17:47:27.711Z,25.50
2023-05-26T17:49:58.303Z,25.50
2023-05-26T17:52:25.955Z,24.80
2023-05-26T17:54:53.493Z,25.00
2023-05-26T17:57:20.838Z,25.40
2023-05-26T17:59:48.194Z,25.20
2023-05-26T18:02:15.745Z,25.50
2023-05-26T18:04:43.670Z,25.10
2023-05-26T18:07:11.605Z,24.90
2023-05-26T18:09:40.884Z,24.80
2023-05-26T18:12:11.264Z,24.50
2023-05-26T18:14:38.648Z,24.00
2023-05-26T18:17:05.988Z,23.90
2023-05-26T18:19:33.556Z,24.10
2023-05-26T18:22:01.894Z,24.00
2023-05-26T18:24:29.594Z,23.90
2023-05-26T18:26:57.164Z,23.80
2023-05-26T18:29:24.502Z,23.30
2023-05-26T18:31:52.032Z,23.40
2023-05-26T18:34:25.506Z,23.20
2023-05-26T18:36:53.456Z,22.40
2023-05-26T18:39:20.813Z,22.00
2023-05-26T18:41:48.151Z,22.50
2023-05-26T18:46:43.230Z,22.10
2023-05-26T18:49:11.649Z,22.10
2023-05-26T18:51:39.057Z,21.90
2023-05-26T18:54:06.530Z,21.70
2023-05-26T18:56:33.858Z,21.50
2023-05-26T18:59:01.539Z,21.30
2023-05-26T19:01:28.911Z,21.40
2023-05-26T19:03:58.235Z,21.00
2023-05-26T19:06:25.760Z,20.60
2023-05-26T19:08:53.227Z,20.40
2023-05-26T19:11:20.674Z,19.90
2023-05-26T19:13:48.035Z,19.80
2023-05-26T19:16:15.811Z,19.80
2023-05-26T19:18:43.153Z,19.40
2023-05-26T19:21:10.502Z,19.40
2023-05-26T19:23:37.767Z,18.90
2023-05-26T19:26:05.148Z,18.70
2023-05-26T19:28:32.666Z,18.20
2023-05-26T19:31:00.568Z,18.00
2023-05-26T19:33:27.981Z,17.70
2023-05-26T19:35:55.615Z,17.50
2023-05-26T19:38:22.970Z,17.30
2023-05-26T19:40:50.259Z,17.20
2023-05-26T19:45:45.358Z,16.60
2023-05-26T19:48:12.867Z,16.30
2023-05-26T19:50:40.790Z,16.10
2023-05-26T19:53:08.077Z,16.00
2023-05-26T19:55:35.414Z,15.90
2023-05-26T19:58:02.837Z,15.70
2023-05-26T20:00:30.186Z,15.60
2023-05-26T20:02:57.820Z,15.50
2023-05-26T20:05:25.540Z,15.30
2023-05-26T20:07:52.869Z,15.20
2023-05-26T20:10:20.340Z,15.00
2023-05-26T20:12:47.808Z,15.00
2023-05-26T20:15:15.791Z,14.90
2023-05-26T20:17:43.184Z,14.80
2023-05-26T20:20:14.453Z,15.00
2023-05-26T20:22:43.841Z,14.70
2023-05-26T20:25:11.886Z,14.50
2023-05-26T20:27:39.665Z,14.10
2023-05-26T20:30:08.121Z,14.30
2023-05-26T20:32:36.629Z,14.20
2023-05-26T20:35:04.977Z,14.30
2023-05-26T20:37:32.746Z,14.10
2023-05-26T20:40:01.431Z,14.10
2023-05-26T20:42:33.761Z,13.90
2023-05-26T20:45:04.152Z,14.00
2023-05-26T20:47:31.985Z,14.10
2023-05-26T20:49:59.383Z,14.30
2023-05-26T20:52:26.787Z,14.00
2023-05-26T20:57:22.604Z,13.80
2023-05-26T20:59:50.121Z,13.70
2023-05-26T21:02:17.742Z,13.50
2023-05-26T21:04:45.377Z,13.60
2023-05-26T21:07:13.055Z,13.60
2023-05-26T21:09:40.509Z,15.00
2023-05-26T21:12:08.030Z,13.50
2023-05-26T21:14:36.509Z,13.70
2023-05-26T21:17:04.094Z,13.50
2023-05-26T21:19:31.768Z,13.50
2023-05-26T21:21:59.121Z,13.40
2023-05-26T21:24:26.496Z,13.40
2023-05-26T21:26:54.096Z,13.30
2023-05-26T21:29:21.464Z,13.20
2023-05-26T21:31:48.863Z,13.30
2023-05-26T21:36:43.903Z,13.10
2023-05-26T21:39:11.465Z,13.10
2023-05-26T21:41:39.625Z,13.50
2023-05-26T21:44:07.893Z,13.10
2023-05-26T21:46:35.377Z,13.10
2023-05-26T21:49:02.886Z,14.70
2023-05-26T21:51:30.388Z,13.00
2023-05-26T21:53:57.726Z,13.00
2023-05-26T21:56:26.120Z,13.00
2023-05-26T21:58:53.607Z,13.20
2023-05-26T22:01:21.959Z,12.90
2023-05-26T22:03:49.388Z,12.80
2023-05-26T22:06:16.887Z,13.10
2023-05-26T22:08:44.353Z,12.80
2023-05-26T22:11:12.115Z,12.80
2023-05-26T22:13:39.830Z,13.10
2023-05-26T22:16:07.201Z,12.70
2023-05-26T22:18:34.691Z,12.50
2023-05-26T22:21:02.297Z,12.60
2023-05-26T22:23:29.824Z,13.00
2023-05-26T22:25:57.468Z,12.50
2023-05-26T22:28:24.945Z,13.50
2023-05-26T22:31:00.018Z,12.60
2023-05-26T22:33:27.535Z,13.60
2023-05-26T22:35:55.412Z,12.40
2023-05-26T22:38:23.164Z,12.30
2023-05-26T22:40:50.662Z,12.30
2023-05-26T22:43:18.259Z,13.60
2023-05-26T22:45:45.740Z,12.80
2023-05-26T22:48:13.887Z,12.30
2023-05-26T22:50:41.595Z,12.40
2023-05-26T22:53:09.107Z,12.30
2023-05-26T22:55:47.109Z,12.50
2023-05-26T22:58:18.843Z,12.50
2023-05-26T23:00:46.740Z,12.40
2023-05-26T23:03:14.335Z,12.10
2023-05-26T23:05:41.726Z,13.60
2023-05-26T23:08:09.276Z,11.90
2023-05-26T23:10:37.731Z,12.00
2023-05-26T23:13:05.139Z,12.10
2023-05-26T23:15:32.564Z,12.90
2023-05-26T23:18:00.052Z,12.00
2023-05-26T23:20:27.784Z,12.10
2023-05-26T23:22:55.313Z,11.80
2023-05-26T23:25:22.691Z,12.40
2023-05-26T23:27:50.094Z,11.90
2023-05-26T23:30:17.619Z,11.90
2023-05-26T23:32:45.065Z,11.80
2023-05-26T23:35:12.460Z,11.90
2023-05-26T23:37:39.952Z,11.70
2023-05-26T23:40:08.724Z,11.80
2023-05-26T23:42:36.393Z,11.60
2023-05-26T23:45:04.222Z,11.80
2023-05-26T23:47:31.738Z,11.80
2023-05-26T23:49:59.166Z,11.80
2023-05-26T23:52:26.610Z,11.70
2023-05-26T23:54:53.930Z,12.60
2023-05-26T23:59:48.922Z,11.70
